Skip Navigation LinksHome page > Weather > Current weather Skip Navigation Links

Current Weather

Chicago O'Hare Intl, Chicago

For information only: do not use for flight planning or navigation.
Latest weather
Observation time Saturday, August 30, 2014 8:51 AM CDT
Local time Saturday, August 30, 2014 9:29 AM CDT
Flight conditions Visual Meteorological Conditions
Winds
Wind direction Southwest (230°)
Wind speed 12 mph
Visibility 10 mi.
Sky condition
Ceiling 15,000 ft. broken clouds
Cloud layer scattered clouds 1,500 ft.
Cloud layer broken clouds 15,000 ft.
Cloud layer broken clouds 25,000 ft.
Temperature 75°F
Dewpoint 67°F
Altimeter 29.85 in.Hg
Derived measurements
Relative humidity 76%
Density altitude 2088 ft.
Sea-level pressure 29.83 in.Hg
Remarks
Automated weather observing station with precipitation discriminator.
METAR KORD 301351Z 23010KT 10SM SCT015 BKN150 BKN250 24/19 A2985 RMK AO2 SLP102 T02390194

Settings

Location code

InnerDrive.Weather 4.0.5341.0 Release CLR 4.0.30319.34014
Copyright ©2014 Inner Drive Technology. All rights reserved. Portions Copyright ©1986-2014 David Braverman.

Find weather

Site navigation


Skip Navigation Links

Place info

Page info

PayPal - The safer, easier way to pay online!

Return home.

Copyright ©2014 Inner Drive Technology. Purveyors of fine, hand-crafted computer software. Page printed 2014-08-30T14:29:02 UTC.